Seitenverwaltung

Live am Platz

Die Bilder unserer Webcams werden alle 5 Minuten aktualisiert.

Sonnenaufgang:

06:50 UTC / 07:50 Lokal

Sonnenuntergang:

15:35 UTC / 16:35 Lokal

METAR (02.12.2020 20:20 UTC):

EDNY 022020Z AUTO VRB02KT 9000 // OVC024/// M02/M04 Q1013
MVFR

TAF (02.12.2020 17:00 UTC):

TAF EDNY 021700Z 0218/0318 VRB03KT 9000 OVC025 TEMPO 0218/0304 4000 -SN OVC008 TEMPO 0304/0308 BKN010

Alle Angaben unverbindlich und ohne Gewähr. Zeiten genähert.

Für den Verkehrslandeplatz Konstanz werden keine offiziellen Wetterinformationen ausgegeben. Daher werden zur Orientierung Daten des nahegelegenen Flughafens Friedrichshafen dargestellt.